sensor_id;sensor_type;location;lat;lon;timestamp;temperature;humidity
20726;DHT22;10524;48.132;8.518;2023-10-08T00:01:29;7.60;99.90
20726;DHT22;10524;48.132;8.518;2023-10-08T00:03:58;7.60;99.90
20726;DHT22;10524;48.132;8.518;2023-10-08T00:06:26;7.60;99.90
20726;DHT22;10524;48.132;8.518;2023-10-08T00:08:53;7.50;99.90
20726;DHT22;10524;48.132;8.518;2023-10-08T00:11:26;7.50;99.90
20726;DHT22;10524;48.132;8.518;2023-10-08T00:13:54;7.40;99.90
20726;DHT22;10524;48.132;8.518;2023-10-08T00:16:22;7.40;99.90
20726;DHT22;10524;48.132;8.518;2023-10-08T00:18:48;7.40;99.90
20726;DHT22;10524;48.132;8.518;2023-10-08T00:21:18;7.40;99.90
20726;DHT22;10524;48.132;8.518;2023-10-08T00:24:03;7.30;99.90
20726;DHT22;10524;48.132;8.518;2023-10-08T00:26:33;7.20;99.90
20726;DHT22;10524;48.132;8.518;2023-10-08T00:29:05;7.20;99.90
20726;DHT22;10524;48.132;8.518;2023-10-08T00:31:47;7.20;99.90
20726;DHT22;10524;48.132;8.518;2023-10-08T00:34:16;7.20;99.90
20726;DHT22;10524;48.132;8.518;2023-10-08T00:36:47;7.10;99.90
20726;DHT22;10524;48.132;8.518;2023-10-08T00:39:14;7.20;99.90
20726;DHT22;10524;48.132;8.518;2023-10-08T00:41:44;7.20;99.90
20726;DHT22;10524;48.132;8.518;2023-10-08T00:44:13;7.20;99.90
20726;DHT22;10524;48.132;8.518;2023-10-08T00:46:44;7.20;99.90
20726;DHT22;10524;48.132;8.518;2023-10-08T00:49:20;7.20;99.90
20726;DHT22;10524;48.132;8.518;2023-10-08T00:52:04;7.30;99.90
20726;DHT22;10524;48.132;8.518;2023-10-08T00:54:37;7.40;99.90
20726;DHT22;10524;48.132;8.518;2023-10-08T00:57:26;7.30;99.90
20726;DHT22;10524;48.132;8.518;2023-10-08T00:59:52;7.20;99.90
20726;DHT22;10524;48.132;8.518;2023-10-08T01:02:26;7.10;99.90
20726;DHT22;10524;48.132;8.518;2023-10-08T01:04:56;7.10;99.90
20726;DHT22;10524;48.132;8.518;2023-10-08T01:07:23;7.00;99.90
20726;DHT22;10524;48.132;8.518;2023-10-08T01:09:50;7.00;99.90
20726;DHT22;10524;48.132;8.518;2023-10-08T01:12:18;7.00;99.90
20726;DHT22;10524;48.132;8.518;2023-10-08T01:15:02;7.00;99.90
20726;DHT22;10524;48.132;8.518;2023-10-08T01:17:51;6.90;99.90
20726;DHT22;10524;48.132;8.518;2023-10-08T01:20:24;7.00;99.90
20726;DHT22;10524;48.132;8.518;2023-10-08T01:23:10;6.90;99.90
20726;DHT22;10524;48.132;8.518;2023-10-08T01:25:40;6.80;99.90
20726;DHT22;10524;48.132;8.518;2023-10-08T01:28:07;6.80;99.90
20726;DHT22;10524;48.132;8.518;2023-10-08T01:30:46;6.80;99.90
20726;DHT22;10524;48.132;8.518;2023-10-08T01:33:13;6.70;99.90
20726;DHT22;10524;48.132;8.518;2023-10-08T01:35:41;6.70;99.90
20726;DHT22;10524;48.132;8.518;2023-10-08T01:38:07;6.70;99.90
20726;DHT22;10524;48.132;8.518;2023-10-08T01:40:34;6.60;99.90
20726;DHT22;10524;48.132;8.518;2023-10-08T01:43:00;6.60;99.90
20726;DHT22;10524;48.132;8.518;2023-10-08T01:45:26;6.60;99.90
20726;DHT22;10524;48.132;8.518;2023-10-08T01:47:52;6.60;99.90
20726;DHT22;10524;48.132;8.518;2023-10-08T01:50:21;6.60;99.90
20726;DHT22;10524;48.132;8.518;2023-10-08T01:52:50;6.70;99.90
20726;DHT22;10524;48.132;8.518;2023-10-08T01:55:18;6.70;99.90
20726;DHT22;10524;48.132;8.518;2023-10-08T01:57:46;6.70;99.90
20726;DHT22;10524;48.132;8.518;2023-10-08T02:00:12;6.60;99.90
20726;DHT22;10524;48.132;8.518;2023-10-08T02:02:50;6.60;99.90
20726;DHT22;10524;48.132;8.518;2023-10-08T02:05:16;6.60;99.90
20726;DHT22;10524;48.132;8.518;2023-10-08T02:07:47;6.60;99.90
20726;DHT22;10524;48.132;8.518;2023-10-08T02:10:13;6.50;99.90
20726;DHT22;10524;48.132;8.518;2023-10-08T02:12:41;6.50;99.90
20726;DHT22;10524;48.132;8.518;2023-10-08T02:15:08;6.60;99.90
20726;DHT22;10524;48.132;8.518;2023-10-08T02:17:34;6.60;99.90
20726;DHT22;10524;48.132;8.518;2023-10-08T02:20:00;6.70;99.90
20726;DHT22;10524;48.132;8.518;2023-10-08T02:22:30;6.80;99.90
20726;DHT22;10524;48.132;8.518;2023-10-08T02:24:56;6.90;99.90
20726;DHT22;10524;48.132;8.518;2023-10-08T02:27:27;6.90;99.90
20726;DHT22;10524;48.132;8.518;2023-10-08T02:29:53;7.00;99.90
20726;DHT22;10524;48.132;8.518;2023-10-08T02:32:21;7.00;99.90
20726;DHT22;10524;48.132;8.518;2023-10-08T02:34:50;7.10;99.90
20726;DHT22;10524;48.132;8.518;2023-10-08T02:37:18;7.00;99.90
20726;DHT22;10524;48.132;8.518;2023-10-08T02:39:45;7.00;99.90
20726;DHT22;10524;48.132;8.518;2023-10-08T02:42:10;7.00;99.90
20726;DHT22;10524;48.132;8.518;2023-10-08T02:44:36;6.90;99.90
20726;DHT22;10524;48.132;8.518;2023-10-08T02:47:11;6.90;99.90
20726;DHT22;10524;48.132;8.518;2023-10-08T02:49:46;6.90;99.90
20726;DHT22;10524;48.132;8.518;2023-10-08T02:52:14;6.90;99.90
20726;DHT22;10524;48.132;8.518;2023-10-08T02:54:41;6.80;99.90
20726;DHT22;10524;48.132;8.518;2023-10-08T02:57:07;6.70;99.90
20726;DHT22;10524;48.132;8.518;2023-10-08T02:59:39;6.70;99.90
20726;DHT22;10524;48.132;8.518;2023-10-08T03:02:12;6.60;99.90
20726;DHT22;10524;48.132;8.518;2023-10-08T03:04:45;6.70;99.90
20726;DHT22;10524;48.132;8.518;2023-10-08T03:07:12;6.70;99.90
20726;DHT22;10524;48.132;8.518;2023-10-08T03:09:48;6.60;99.90
20726;DHT22;10524;48.132;8.518;2023-10-08T03:12:17;6.70;99.90
20726;DHT22;10524;48.132;8.518;2023-10-08T03:14:43;6.70;99.90
20726;DHT22;10524;48.132;8.518;2023-10-08T03:17:28;6.70;99.90
20726;DHT22;10524;48.132;8.518;2023-10-08T03:19:55;6.70;99.90
20726;DHT22;10524;48.132;8.518;2023-10-08T03:22:43;6.70;99.90
20726;DHT22;10524;48.132;8.518;2023-10-08T03:25:12;6.60;99.90
20726;DHT22;10524;48.132;8.518;2023-10-08T03:27:42;6.50;99.90
20726;DHT22;10524;48.132;8.518;2023-10-08T03:30:09;6.50;99.90
20726;DHT22;10524;48.132;8.518;2023-10-08T03:32:41;6.50;99.90
20726;DHT22;10524;48.132;8.518;2023-10-08T03:35:09;6.40;99.90
20726;DHT22;10524;48.132;8.518;2023-10-08T03:37:38;6.50;99.90
20726;DHT22;10524;48.132;8.518;2023-10-08T03:40:11;6.70;99.90
20726;DHT22;10524;48.132;8.518;2023-10-08T03:42:51;6.60;99.90
20726;DHT22;10524;48.132;8.518;2023-10-08T03:45:21;6.50;99.90
20726;DHT22;10524;48.132;8.518;2023-10-08T03:48:06;6.50;99.90
20726;DHT22;10524;48.132;8.518;2023-10-08T03:50:33;6.40;99.90
20726;DHT22;10524;48.132;8.518;2023-10-08T03:53:07;6.30;99.90
20726;DHT22;10524;48.132;8.518;2023-10-08T03:55:39;6.20;99.90
20726;DHT22;10524;48.132;8.518;2023-10-08T03:58:11;6.20;99.90
20726;DHT22;10524;48.132;8.518;2023-10-08T04:00:45;6.20;99.90
20726;DHT22;10524;48.132;8.518;2023-10-08T04:03:11;6.10;99.90
20726;DHT22;10524;48.132;8.518;2023-10-08T04:05:38;6.10;99.90
20726;DHT22;10524;48.132;8.518;2023-10-08T04:08:36;6.10;99.90
20726;DHT22;10524;48.132;8.518;2023-10-08T04:11:09;6.20;99.90
20726;DHT22;10524;48.132;8.518;2023-10-08T04:13:47;6.30;99.90
20726;DHT22;10524;48.132;8.518;2023-10-08T04:16:14;6.40;99.90
20726;DHT22;10524;48.132;8.518;2023-10-08T04:18:46;6.40;99.90
20726;DHT22;10524;48.132;8.518;2023-10-08T04:21:11;6.40;99.90
20726;DHT22;10524;48.132;8.518;2023-10-08T04:23:40;6.40;99.90
20726;DHT22;10524;48.132;8.518;2023-10-08T04:26:05;6.40;99.90
20726;DHT22;10524;48.132;8.518;2023-10-08T04:28:32;6.30;99.90
20726;DHT22;10524;48.132;8.518;2023-10-08T04:31:01;6.30;99.90
20726;DHT22;10524;48.132;8.518;2023-10-08T04:33:43;6.30;99.90
20726;DHT22;10524;48.132;8.518;2023-10-08T04:36:10;6.30;99.90
20726;DHT22;10524;48.132;8.518;2023-10-08T04:38:43;6.20;99.90
20726;DHT22;10524;48.132;8.518;2023-10-08T04:41:11;6.20;99.90
20726;DHT22;10524;48.132;8.518;2023-10-08T04:43:37;6.10;99.90
20726;DHT22;10524;48.132;8.518;2023-10-08T04:46:08;6.10;99.90
20726;DHT22;10524;48.132;8.518;2023-10-08T04:48:50;6.20;99.90
20726;DHT22;10524;48.132;8.518;2023-10-08T04:51:17;6.10;99.90
20726;DHT22;10524;48.132;8.518;2023-10-08T04:53:44;6.10;99.90
20726;DHT22;10524;48.132;8.518;2023-10-08T04:56:14;6.10;99.90
20726;DHT22;10524;48.132;8.518;2023-10-08T04:58:46;6.10;99.90
20726;DHT22;10524;48.132;8.518;2023-10-08T05:01:18;6.00;99.90
20726;DHT22;10524;48.132;8.518;2023-10-08T05:03:49;6.00;99.90
20726;DHT22;10524;48.132;8.518;2023-10-08T05:06:29;5.90;99.90
20726;DHT22;10524;48.132;8.518;2023-10-08T05:09:20;5.90;99.90
20726;DHT22;10524;48.132;8.518;2023-10-08T05:11:52;5.90;99.90
20726;DHT22;10524;48.132;8.518;2023-10-08T05:14:20;5.90;99.90
20726;DHT22;10524;48.132;8.518;2023-10-08T05:17:02;5.80;99.90
20726;DHT22;10524;48.132;8.518;2023-10-08T05:19:32;5.80;99.90
20726;DHT22;10524;48.132;8.518;2023-10-08T05:22:13;5.70;99.90
20726;DHT22;10524;48.132;8.518;2023-10-08T05:24:56;5.70;99.90
20726;DHT22;10524;48.132;8.518;2023-10-08T05:27:43;5.70;99.90
20726;DHT22;10524;48.132;8.518;2023-10-08T05:30:20;5.70;99.90
20726;DHT22;10524;48.132;8.518;2023-10-08T05:33:08;5.70;99.90
20726;DHT22;10524;48.132;8.518;2023-10-08T05:35:52;5.80;99.90
20726;DHT22;10524;48.132;8.518;2023-10-08T05:38:28;5.70;99.90
20726;DHT22;10524;48.132;8.518;2023-10-08T05:41:00;5.70;99.90
20726;DHT22;10524;48.132;8.518;2023-10-08T05:46:12;5.80;99.90
20726;DHT22;10524;48.132;8.518;2023-10-08T05:48:52;5.70;99.90
20726;DHT22;10524;48.132;8.518;2023-10-08T05:51:37;5.80;99.90
20726;DHT22;10524;48.132;8.518;2023-10-08T05:54:32;5.80;99.90
20726;DHT22;10524;48.132;8.518;2023-10-08T05:57:08;6.00;99.90
20726;DHT22;10524;48.132;8.518;2023-10-08T06:02:21;6.20;99.90
20726;DHT22;10524;48.132;8.518;2023-10-08T06:04:54;6.40;99.90
20726;DHT22;10524;48.132;8.518;2023-10-08T06:07:51;6.60;99.90
20726;DHT22;10524;48.132;8.518;2023-10-08T06:10:25;6.90;99.90
20726;DHT22;10524;48.132;8.518;2023-10-08T06:13:00;7.20;99.90
20726;DHT22;10524;48.132;8.518;2023-10-08T06:18:32;7.70;99.90
20726;DHT22;10524;48.132;8.518;2023-10-08T06:21:04;8.10;99.90
20726;DHT22;10524;48.132;8.518;2023-10-08T06:23:40;8.60;99.90
20726;DHT22;10524;48.132;8.518;2023-10-08T06:26:08;9.70;99.90
20726;DHT22;10524;48.132;8.518;2023-10-08T06:28:38;10.70;99.90
20726;DHT22;10524;48.132;8.518;2023-10-08T06:31:05;11.60;99.90
20726;DHT22;10524;48.132;8.518;2023-10-08T06:33:34;12.30;99.90
20726;DHT22;10524;48.132;8.518;2023-10-08T06:36:00;12.50;99.90
20726;DHT22;10524;48.132;8.518;2023-10-08T06:38:40;12.50;99.90
20726;DHT22;10524;48.132;8.518;2023-10-08T06:41:08;12.70;99.90
20726;DHT22;10524;48.132;8.518;2023-10-08T06:43:41;12.70;99.90
20726;DHT22;10524;48.132;8.518;2023-10-08T06:46:12;13.20;99.90
20726;DHT22;10524;48.132;8.518;2023-10-08T06:48:39;14.30;99.90
20726;DHT22;10524;48.132;8.518;2023-10-08T06:51:09;14.70;99.90
20726;DHT22;10524;48.132;8.518;2023-10-08T06:53:50;15.20;99.90
20726;DHT22;10524;48.132;8.518;2023-10-08T06:56:15;15.90;99.90
20726;DHT22;10524;48.132;8.518;2023-10-08T06:58:42;16.40;99.90
20726;DHT22;10524;48.132;8.518;2023-10-08T07:01:21;15.70;99.90
20726;DHT22;10524;48.132;8.518;2023-10-08T07:03:48;14.40;99.90
20726;DHT22;10524;48.132;8.518;2023-10-08T07:06:20;13.80;99.90
20726;DHT22;10524;48.132;8.518;2023-10-08T07:08:52;13.60;99.90
20726;DHT22;10524;48.132;8.518;2023-10-08T07:11:22;13.60;99.90
20726;DHT22;10524;48.132;8.518;2023-10-08T07:13:48;14.60;99.90
20726;DHT22;10524;48.132;8.518;2023-10-08T07:16:14;15.70;99.90
20726;DHT22;10524;48.132;8.518;2023-10-08T07:18:43;17.40;99.90
20726;DHT22;10524;48.132;8.518;2023-10-08T07:21:18;18.80;99.90
20726;DHT22;10524;48.132;8.518;2023-10-08T07:23:49;20.40;99.90
20726;DHT22;10524;48.132;8.518;2023-10-08T07:26:30;21.90;99.90
20726;DHT22;10524;48.132;8.518;2023-10-08T07:29:03;23.80;99.90
20726;DHT22;10524;48.132;8.518;2023-10-08T07:31:35;25.50;99.90
20726;DHT22;10524;48.132;8.518;2023-10-08T07:34:02;26.90;99.90
20726;DHT22;10524;48.132;8.518;2023-10-08T07:36:55;27.90;99.90
20726;DHT22;10524;48.132;8.518;2023-10-08T07:39:22;29.10;99.90
20726;DHT22;10524;48.132;8.518;2023-10-08T07:42:01;30.00;99.80
20726;DHT22;10524;48.132;8.518;2023-10-08T07:44:28;29.70;98.60
20726;DHT22;10524;48.132;8.518;2023-10-08T07:46:54;28.50;98.70
20726;DHT22;10524;48.132;8.518;2023-10-08T07:49:20;27.60;99.00
20726;DHT22;10524;48.132;8.518;2023-10-08T07:51:49;26.90;99.70
20726;DHT22;10524;48.132;8.518;2023-10-08T07:54:20;24.70;99.90
20726;DHT22;10524;48.132;8.518;2023-10-08T07:56:48;22.10;99.90
20726;DHT22;10524;48.132;8.518;2023-10-08T07:59:14;20.50;99.90
20726;DHT22;10524;48.132;8.518;2023-10-08T08:01:44;20.00;99.90
20726;DHT22;10524;48.132;8.518;2023-10-08T08:04:11;19.90;99.90
20726;DHT22;10524;48.132;8.518;2023-10-08T08:06:48;19.90;99.90
20726;DHT22;10524;48.132;8.518;2023-10-08T08:09:16;19.60;99.90
20726;DHT22;10524;48.132;8.518;2023-10-08T08:11:46;20.40;99.90
20726;DHT22;10524;48.132;8.518;2023-10-08T08:14:14;21.70;99.90
20726;DHT22;10524;48.132;8.518;2023-10-08T08:16:45;22.10;99.90
20726;DHT22;10524;48.132;8.518;2023-10-08T08:19:14;22.40;99.90
20726;DHT22;10524;48.132;8.518;2023-10-08T08:21:50;23.10;99.90
20726;DHT22;10524;48.132;8.518;2023-10-08T08:24:17;24.60;99.90
20726;DHT22;10524;48.132;8.518;2023-10-08T08:26:57;26.00;99.90
20726;DHT22;10524;48.132;8.518;2023-10-08T08:29:38;27.00;99.90
20726;DHT22;10524;48.132;8.518;2023-10-08T08:32:14;28.30;99.90
20726;DHT22;10524;48.132;8.518;2023-10-08T08:34:43;28.60;99.90
20726;DHT22;10524;48.132;8.518;2023-10-08T08:37:11;29.30;99.90
20726;DHT22;10524;48.132;8.518;2023-10-08T08:39:38;29.50;99.90
20726;DHT22;10524;48.132;8.518;2023-10-08T08:42:04;29.50;99.90
20726;DHT22;10524;48.132;8.518;2023-10-08T08:44:31;29.30;99.90
20726;DHT22;10524;48.132;8.518;2023-10-08T08:47:00;29.50;99.90
20726;DHT22;10524;48.132;8.518;2023-10-08T08:49:34;30.10;99.90
20726;DHT22;10524;48.132;8.518;2023-10-08T08:52:00;31.50;99.90
20726;DHT22;10524;48.132;8.518;2023-10-08T08:54:29;32.70;99.80
20726;DHT22;10524;48.132;8.518;2023-10-08T08:57:00;32.60;99.20
20726;DHT22;10524;48.132;8.518;2023-10-08T08:59:30;33.60;99.20
20726;DHT22;10524;48.132;8.518;2023-10-08T09:02:00;34.00;98.70
20726;DHT22;10524;48.132;8.518;2023-10-08T09:04:31;33.70;97.80
20726;DHT22;10524;48.132;8.518;2023-10-08T09:07:01;33.30;97.70
20726;DHT22;10524;48.132;8.518;2023-10-08T09:09:34;33.80;97.30
20726;DHT22;10524;48.132;8.518;2023-10-08T09:12:07;34.50;97.20
20726;DHT22;10524;48.132;8.518;2023-10-08T09:14:36;34.50;97.00
20726;DHT22;10524;48.132;8.518;2023-10-08T09:17:04;35.40;95.80
20726;DHT22;10524;48.132;8.518;2023-10-08T09:19:36;35.50;95.30
20726;DHT22;10524;48.132;8.518;2023-10-08T09:22:12;34.70;94.80
20726;DHT22;10524;48.132;8.518;2023-10-08T09:24:39;34.70;94.40
20726;DHT22;10524;48.132;8.518;2023-10-08T09:27:05;34.40;95.10
20726;DHT22;10524;48.132;8.518;2023-10-08T09:29:32;34.90;95.20
20726;DHT22;10524;48.132;8.518;2023-10-08T09:32:04;34.90;94.40
20726;DHT22;10524;48.132;8.518;2023-10-08T09:34:32;34.30;94.00
20726;DHT22;10524;48.132;8.518;2023-10-08T09:36:59;35.30;94.20
20726;DHT22;10524;48.132;8.518;2023-10-08T09:39:27;36.00;93.30
20726;DHT22;10524;48.132;8.518;2023-10-08T09:41:56;36.90;92.50
20726;DHT22;10524;48.132;8.518;2023-10-08T09:44:23;36.90;91.90
20726;DHT22;10524;48.132;8.518;2023-10-08T09:49:36;39.70;90.50
20726;DHT22;10524;48.132;8.518;2023-10-08T09:52:06;38.50;90.20
20726;DHT22;10524;48.132;8.518;2023-10-08T09:54:44;36.60;90.50
20726;DHT22;10524;48.132;8.518;2023-10-08T09:57:13;35.90;90.90
20726;DHT22;10524;48.132;8.518;2023-10-08T09:59:40;35.10;91.10
20726;DHT22;10524;48.132;8.518;2023-10-08T10:02:06;35.20;91.40
20726;DHT22;10524;48.132;8.518;2023-10-08T10:04:35;35.60;91.10
20726;DHT22;10524;48.132;8.518;2023-10-08T10:07:12;36.60;90.90
20726;DHT22;10524;48.132;8.518;2023-10-08T10:09:39;36.60;90.50
20726;DHT22;10524;48.132;8.518;2023-10-08T10:12:11;36.70;90.20
20726;DHT22;10524;48.132;8.518;2023-10-08T10:14:47;36.10;90.60
20726;DHT22;10524;48.132;8.518;2023-10-08T10:17:20;36.40;90.10
20726;DHT22;10524;48.132;8.518;2023-10-08T10:20:06;36.90;89.90
20726;DHT22;10524;48.132;8.518;2023-10-08T10:22:36;37.90;88.30
20726;DHT22;10524;48.132;8.518;2023-10-08T10:25:03;38.80;87.20
20726;DHT22;10524;48.132;8.518;2023-10-08T10:30:33;38.80;86.10
20726;DHT22;10524;48.132;8.518;2023-10-08T10:33:02;38.60;82.50
20726;DHT22;10524;48.132;8.518;2023-10-08T10:35:31;38.60;81.80
20726;DHT22;10524;48.132;8.518;2023-10-08T10:37:58;38.00;82.00
20726;DHT22;10524;48.132;8.518;2023-10-08T10:40:29;37.30;81.40
20726;DHT22;10524;48.132;8.518;2023-10-08T10:43:05;36.60;82.30
20726;DHT22;10524;48.132;8.518;2023-10-08T10:45:32;37.60;82.50
20726;DHT22;10524;48.132;8.518;2023-10-08T10:48:16;38.50;80.90
20726;DHT22;10524;48.132;8.518;2023-10-08T10:50:42;38.20;80.10
20726;DHT22;10524;48.132;8.518;2023-10-08T10:53:17;37.40;80.10
20726;DHT22;10524;48.132;8.518;2023-10-08T10:55:44;37.60;80.30
20726;DHT22;10524;48.132;8.518;2023-10-08T10:58:24;37.80;79.30
20726;DHT22;10524;48.132;8.518;2023-10-08T11:00:50;38.10;79.40
20726;DHT22;10524;48.132;8.518;2023-10-08T11:03:23;38.60;79.20
20726;DHT22;10524;48.132;8.518;2023-10-08T11:05:53;38.60;79.20
20726;DHT22;10524;48.132;8.518;2023-10-08T11:08:21;39.60;77.30
20726;DHT22;10524;48.132;8.518;2023-10-08T11:10:49;40.00;76.60
20726;DHT22;10524;48.132;8.518;2023-10-08T11:13:20;40.50;76.00
20726;DHT22;10524;48.132;8.518;2023-10-08T11:15:50;41.10;75.50
20726;DHT22;10524;48.132;8.518;2023-10-08T11:18:19;39.10;73.00
20726;DHT22;10524;48.132;8.518;2023-10-08T11:20:46;38.00;74.10
20726;DHT22;10524;48.132;8.518;2023-10-08T11:23:34;38.30;75.20
20726;DHT22;10524;48.132;8.518;2023-10-08T11:26:04;38.30;74.80
20726;DHT22;10524;48.132;8.518;2023-10-08T11:28:38;38.50;74.90
20726;DHT22;10524;48.132;8.518;2023-10-08T11:31:17;38.40;75.10
20726;DHT22;10524;48.132;8.518;2023-10-08T11:33:47;37.80;74.40
20726;DHT22;10524;48.132;8.518;2023-10-08T11:36:22;37.30;73.80
20726;DHT22;10524;48.132;8.518;2023-10-08T11:38:54;36.50;73.30
20726;DHT22;10524;48.132;8.518;2023-10-08T11:41:28;36.30;75.70
20726;DHT22;10524;48.132;8.518;2023-10-08T11:43:55;36.80;74.70
20726;DHT22;10524;48.132;8.518;2023-10-08T11:46:29;37.00;75.30
20726;DHT22;10524;48.132;8.518;2023-10-08T11:49:04;37.50;74.60
20726;DHT22;10524;48.132;8.518;2023-10-08T11:51:34;38.00;74.10
20726;DHT22;10524;48.132;8.518;2023-10-08T11:54:01;38.00;73.10
20726;DHT22;10524;48.132;8.518;2023-10-08T11:56:30;37.80;72.80
20726;DHT22;10524;48.132;8.518;2023-10-08T11:58:57;37.30;74.80
20726;DHT22;10524;48.132;8.518;2023-10-08T12:01:24;37.00;73.30
20726;DHT22;10524;48.132;8.518;2023-10-08T12:03:50;37.60;73.70
20726;DHT22;10524;48.132;8.518;2023-10-08T12:06:16;37.20;72.90
20726;DHT22;10524;48.132;8.518;2023-10-08T12:08:47;36.80;72.90
20726;DHT22;10524;48.132;8.518;2023-10-08T12:11:19;37.20;72.80
20726;DHT22;10524;48.132;8.518;2023-10-08T12:13:46;38.10;71.70
20726;DHT22;10524;48.132;8.518;2023-10-08T12:16:16;38.00;72.50
20726;DHT22;10524;48.132;8.518;2023-10-08T12:18:47;38.10;72.00
20726;DHT22;10524;48.132;8.518;2023-10-08T12:21:25;38.30;72.10
20726;DHT22;10524;48.132;8.518;2023-10-08T12:23:50;38.50;71.20
20726;DHT22;10524;48.132;8.518;2023-10-08T12:26:17;36.80;72.10
20726;DHT22;10524;48.132;8.518;2023-10-08T12:28:48;37.50;72.90
20726;DHT22;10524;48.132;8.518;2023-10-08T12:31:17;38.40;71.60
20726;DHT22;10524;48.132;8.518;2023-10-08T12:33:51;39.10;70.60
20726;DHT22;10524;48.132;8.518;2023-10-08T12:36:23;38.60;71.20
20726;DHT22;10524;48.132;8.518;2023-10-08T12:38:50;37.90;72.00
20726;DHT22;10524;48.132;8.518;2023-10-08T12:41:26;37.50;72.00
20726;DHT22;10524;48.132;8.518;2023-10-08T12:43:53;37.40;72.30
20726;DHT22;10524;48.132;8.518;2023-10-08T12:46:20;37.50;71.70
20726;DHT22;10524;48.132;8.518;2023-10-08T12:48:53;36.60;72.30
20726;DHT22;10524;48.132;8.518;2023-10-08T12:51:25;36.90;72.60
20726;DHT22;10524;48.132;8.518;2023-10-08T12:53:54;36.30;72.80
20726;DHT22;10524;48.132;8.518;2023-10-08T12:56:32;36.40;72.70
20726;DHT22;10524;48.132;8.518;2023-10-08T12:59:02;35.90;72.60
20726;DHT22;10524;48.132;8.518;2023-10-08T13:01:36;36.20;72.20
20726;DHT22;10524;48.132;8.518;2023-10-08T13:04:06;35.30;73.00
20726;DHT22;10524;48.132;8.518;2023-10-08T13:06:41;33.80;73.60
20726;DHT22;10524;48.132;8.518;2023-10-08T13:09:10;33.90;75.00
20726;DHT22;10524;48.132;8.518;2023-10-08T13:11:38;33.60;74.70
20726;DHT22;10524;48.132;8.518;2023-10-08T13:14:05;33.70;74.90
20726;DHT22;10524;48.132;8.518;2023-10-08T13:16:31;33.80;74.90
20726;DHT22;10524;48.132;8.518;2023-10-08T13:18:58;33.50;75.30
20726;DHT22;10524;48.132;8.518;2023-10-08T13:21:25;33.50;75.40
20726;DHT22;10524;48.132;8.518;2023-10-08T13:23:51;34.00;75.00
20726;DHT22;10524;48.132;8.518;2023-10-08T13:26:18;34.00;74.20
20726;DHT22;10524;48.132;8.518;2023-10-08T13:28:44;33.60;74.70
20726;DHT22;10524;48.132;8.518;2023-10-08T13:31:12;33.50;74.90
20726;DHT22;10524;48.132;8.518;2023-10-08T13:33:39;33.90;74.90
20726;DHT22;10524;48.132;8.518;2023-10-08T13:36:09;34.30;74.60
20726;DHT22;10524;48.132;8.518;2023-10-08T13:38:36;33.70;73.80
20726;DHT22;10524;48.132;8.518;2023-10-08T13:41:03;33.40;74.00
20726;DHT22;10524;48.132;8.518;2023-10-08T13:43:33;33.00;74.90
20726;DHT22;10524;48.132;8.518;2023-10-08T13:46:04;32.90;74.70
20726;DHT22;10524;48.132;8.518;2023-10-08T13:48:34;32.20;75.40
20726;DHT22;10524;48.132;8.518;2023-10-08T13:51:05;31.20;76.40
20726;DHT22;10524;48.132;8.518;2023-10-08T13:53:31;30.20;77.20
20726;DHT22;10524;48.132;8.518;2023-10-08T13:55:59;29.40;77.90
20726;DHT22;10524;48.132;8.518;2023-10-08T13:58:27;28.90;78.60
20726;DHT22;10524;48.132;8.518;2023-10-08T14:00:58;28.50;79.70
20726;DHT22;10524;48.132;8.518;2023-10-08T14:03:27;28.20;80.00
20726;DHT22;10524;48.132;8.518;2023-10-08T14:05:57;28.00;80.50
20726;DHT22;10524;48.132;8.518;2023-10-08T14:08:28;27.60;81.00
20726;DHT22;10524;48.132;8.518;2023-10-08T14:10:55;27.20;81.30
20726;DHT22;10524;48.132;8.518;2023-10-08T14:13:29;27.00;82.20
20726;DHT22;10524;48.132;8.518;2023-10-08T14:15:57;26.80;82.30
20726;DHT22;10524;48.132;8.518;2023-10-08T14:18:24;26.60;83.00
20726;DHT22;10524;48.132;8.518;2023-10-08T14:20:57;26.30;84.10
20726;DHT22;10524;48.132;8.518;2023-10-08T14:23:23;26.10;83.70
20726;DHT22;10524;48.132;8.518;2023-10-08T14:25:53;26.00;83.90
20726;DHT22;10524;48.132;8.518;2023-10-08T14:28:28;25.80;84.80
20726;DHT22;10524;48.132;8.518;2023-10-08T14:31:08;25.60;84.80
20726;DHT22;10524;48.132;8.518;2023-10-08T14:33:34;25.50;85.50
20726;DHT22;10524;48.132;8.518;2023-10-08T14:36:24;25.40;87.00
20726;DHT22;10524;48.132;8.518;2023-10-08T14:39:09;25.20;86.30
20726;DHT22;10524;48.132;8.518;2023-10-08T14:41:54;25.00;87.30
20726;DHT22;10524;48.132;8.518;2023-10-08T14:44:39;25.00;87.90
20726;DHT22;10524;48.132;8.518;2023-10-08T14:47:05;24.90;88.90
20726;DHT22;10524;48.132;8.518;2023-10-08T14:49:31;24.70;88.30
20726;DHT22;10524;48.132;8.518;2023-10-08T14:51:58;24.60;89.20
20726;DHT22;10524;48.132;8.518;2023-10-08T14:54:24;24.60;87.70
20726;DHT22;10524;48.132;8.518;2023-10-08T14:56:50;24.50;87.90
20726;DHT22;10524;48.132;8.518;2023-10-08T14:59:17;24.50;87.90
20726;DHT22;10524;48.132;8.518;2023-10-08T15:01:44;24.40;88.40
20726;DHT22;10524;48.132;8.518;2023-10-08T15:04:12;24.40;89.90
20726;DHT22;10524;48.132;8.518;2023-10-08T15:06:39;24.30;90.20
20726;DHT22;10524;48.132;8.518;2023-10-08T15:09:07;24.20;90.10
20726;DHT22;10524;48.132;8.518;2023-10-08T15:11:35;24.00;90.30
20726;DHT22;10524;48.132;8.518;2023-10-08T15:14:04;24.00;90.70
20726;DHT22;10524;48.132;8.518;2023-10-08T15:16:38;23.80;91.20
20726;DHT22;10524;48.132;8.518;2023-10-08T15:19:05;23.70;91.20
20726;DHT22;10524;48.132;8.518;2023-10-08T15:21:31;23.60;91.30
20726;DHT22;10524;48.132;8.518;2023-10-08T15:24:00;23.40;91.30
20726;DHT22;10524;48.132;8.518;2023-10-08T15:26:36;23.20;91.80
20726;DHT22;10524;48.132;8.518;2023-10-08T15:29:02;23.00;92.10
20726;DHT22;10524;48.132;8.518;2023-10-08T15:31:29;22.80;92.40
20726;DHT22;10524;48.132;8.518;2023-10-08T15:33:55;22.60;92.80
20726;DHT22;10524;48.132;8.518;2023-10-08T15:36:21;22.30;93.10
20726;DHT22;10524;48.132;8.518;2023-10-08T15:38:47;22.10;93.50
20726;DHT22;10524;48.132;8.518;2023-10-08T15:41:12;21.90;93.80
20726;DHT22;10524;48.132;8.518;2023-10-08T15:43:42;21.70;94.00
20726;DHT22;10524;48.132;8.518;2023-10-08T15:46:10;21.60;94.20
20726;DHT22;10524;48.132;8.518;2023-10-08T15:48:36;21.50;94.10
20726;DHT22;10524;48.132;8.518;2023-10-08T15:51:03;21.40;94.30
20726;DHT22;10524;48.132;8.518;2023-10-08T15:53:28;21.20;94.40
20726;DHT22;10524;48.132;8.518;2023-10-08T15:55:56;21.00;94.60
20726;DHT22;10524;48.132;8.518;2023-10-08T15:58:22;20.80;95.40
20726;DHT22;10524;48.132;8.518;2023-10-08T16:00:48;20.70;95.80
20726;DHT22;10524;48.132;8.518;2023-10-08T16:03:14;20.50;96.80
20726;DHT22;10524;48.132;8.518;2023-10-08T16:05:43;20.30;96.50
20726;DHT22;10524;48.132;8.518;2023-10-08T16:08:09;20.10;96.90
20726;DHT22;10524;48.132;8.518;2023-10-08T16:10:34;19.90;97.10
20726;DHT22;10524;48.132;8.518;2023-10-08T16:13:00;19.70;97.40
20726;DHT22;10524;48.132;8.518;2023-10-08T16:15:26;19.50;98.30